sensor_id;sensor_type;location;lat;lon;timestamp;pressure;altitude;pressure_sealevel;temperature
13570;BMP180;6856;51.460;7.158;2023-03-01T00:01:55;101783.00;;;4.20
13570;BMP180;6856;51.460;7.158;2023-03-01T00:04:30;101783.00;;;4.20
13570;BMP180;6856;51.460;7.158;2023-03-01T00:07:04;101786.00;;;4.20
13570;BMP180;6856;51.460;7.158;2023-03-01T00:09:38;101795.00;;;4.20
13570;BMP180;6856;51.460;7.158;2023-03-01T00:12:12;101787.00;;;4.20
13570;BMP180;6856;51.460;7.158;2023-03-01T00:14:46;101786.00;;;4.20
13570;BMP180;6856;51.460;7.158;2023-03-01T00:17:20;101777.00;;;4.10
13570;BMP180;6856;51.460;7.158;2023-03-01T00:19:55;101785.00;;;4.10
13570;BMP180;6856;51.460;7.158;2023-03-01T00:22:29;101758.00;;;4.10
13570;BMP180;6856;51.460;7.158;2023-03-01T00:25:03;101778.00;;;4.10
13570;BMP180;6856;51.460;7.158;2023-03-01T00:27:37;101779.00;;;4.00
13570;BMP180;6856;51.460;7.158;2023-03-01T00:30:11;101774.00;;;4.00
13570;BMP180;6856;51.460;7.158;2023-03-01T00:32:45;101768.00;;;4.00
13570;BMP180;6856;51.460;7.158;2023-03-01T00:35:20;101766.00;;;4.00
13570;BMP180;6856;51.460;7.158;2023-03-01T00:37:54;101751.00;;;4.00
13570;BMP180;6856;51.460;7.158;2023-03-01T00:40:33;101763.00;;;3.90
13570;BMP180;6856;51.460;7.158;2023-03-01T00:43:07;101745.00;;;3.90
13570;BMP180;6856;51.460;7.158;2023-03-01T00:45:42;101761.00;;;3.90
13570;BMP180;6856;51.460;7.158;2023-03-01T00:48:16;101754.00;;;3.90
13570;BMP180;6856;51.460;7.158;2023-03-01T00:50:51;101751.00;;;3.90
13570;BMP180;6856;51.460;7.158;2023-03-01T00:53:25;101743.00;;;3.80
13570;BMP180;6856;51.460;7.158;2023-03-01T00:55:59;101735.00;;;3.80
13570;BMP180;6856;51.460;7.158;2023-03-01T00:58:34;101740.00;;;3.80
13570;BMP180;6856;51.460;7.158;2023-03-01T01:01:10;101741.00;;;3.70
13570;BMP180;6856;51.460;7.158;2023-03-01T01:03:52;101724.00;;;3.70
13570;BMP180;6856;51.460;7.158;2023-03-01T01:06:32;101737.00;;;3.70
13570;BMP180;6856;51.460;7.158;2023-03-01T01:09:07;101732.00;;;3.70
13570;BMP180;6856;51.460;7.158;2023-03-01T01:11:41;101736.00;;;3.70
13570;BMP180;6856;51.460;7.158;2023-03-01T01:14:16;101703.00;;;3.70
13570;BMP180;6856;51.460;7.158;2023-03-01T01:16:50;101734.00;;;3.60
13570;BMP180;6856;51.460;7.158;2023-03-01T01:19:25;101723.00;;;3.60
13570;BMP180;6856;51.460;7.158;2023-03-01T01:22:01;101718.00;;;3.60
13570;BMP180;6856;51.460;7.158;2023-03-01T01:24:36;101714.00;;;3.60
13570;BMP180;6856;51.460;7.158;2023-03-01T01:27:10;101714.00;;;3.60
13570;BMP180;6856;51.460;7.158;2023-03-01T01:29:44;101710.00;;;3.60
13570;BMP180;6856;51.460;7.158;2023-03-01T01:32:18;101708.00;;;3.50
13570;BMP180;6856;51.460;7.158;2023-03-01T01:34:51;101687.00;;;3.50
13570;BMP180;6856;51.460;7.158;2023-03-01T01:37:27;101704.00;;;3.50
13570;BMP180;6856;51.460;7.158;2023-03-01T01:40:04;101704.00;;;3.50
13570;BMP180;6856;51.460;7.158;2023-03-01T01:42:38;101703.00;;;3.50
13570;BMP180;6856;51.460;7.158;2023-03-01T01:45:32;101721.00;;;3.50
13570;BMP180;6856;51.460;7.158;2023-03-01T01:48:18;101702.00;;;3.40
13570;BMP180;6856;51.460;7.158;2023-03-01T01:50:59;101694.00;;;3.40
13570;BMP180;6856;51.460;7.158;2023-03-01T01:53:37;101702.00;;;3.40
13570;BMP180;6856;51.460;7.158;2023-03-01T01:56:14;101707.00;;;3.40
13570;BMP180;6856;51.460;7.158;2023-03-01T01:58:49;101701.00;;;3.30
13570;BMP180;6856;51.460;7.158;2023-03-01T02:01:23;101703.00;;;3.30
13570;BMP180;6856;51.460;7.158;2023-03-01T02:03:57;101706.00;;;3.30
13570;BMP180;6856;51.460;7.158;2023-03-01T02:06:38;101693.00;;;3.30
13570;BMP180;6856;51.460;7.158;2023-03-01T02:09:19;101693.00;;;3.30
13570;BMP180;6856;51.460;7.158;2023-03-01T02:11:54;101658.00;;;3.30
13570;BMP180;6856;51.460;7.158;2023-03-01T02:14:27;101665.00;;;3.20
13570;BMP180;6856;51.460;7.158;2023-03-01T02:17:02;101692.00;;;3.20
13570;BMP180;6856;51.460;7.158;2023-03-01T02:19:52;101681.00;;;3.20
13570;BMP180;6856;51.460;7.158;2023-03-01T02:22:31;101681.00;;;3.20
13570;BMP180;6856;51.460;7.158;2023-03-01T02:25:24;101683.00;;;3.20
13570;BMP180;6856;51.460;7.158;2023-03-01T02:28:10;101679.00;;;3.10
13570;BMP180;6856;51.460;7.158;2023-03-01T02:30:49;101661.00;;;3.10
13570;BMP180;6856;51.460;7.158;2023-03-01T02:33:42;101682.00;;;3.10
13570;BMP180;6856;51.460;7.158;2023-03-01T02:36:21;101670.00;;;3.10
13570;BMP180;6856;51.460;7.158;2023-03-01T02:39:00;101678.00;;;3.00
13570;BMP180;6856;51.460;7.158;2023-03-01T02:41:37;101663.00;;;3.10
13570;BMP180;6856;51.460;7.158;2023-03-01T02:44:12;101671.00;;;3.00
13570;BMP180;6856;51.460;7.158;2023-03-01T02:46:51;101679.00;;;3.00
13570;BMP180;6856;51.460;7.158;2023-03-01T02:49:27;101670.00;;;3.00
13570;BMP180;6856;51.460;7.158;2023-03-01T02:52:26;101677.00;;;3.00
13570;BMP180;6856;51.460;7.158;2023-03-01T02:55:06;101679.00;;;3.00
13570;BMP180;6856;51.460;7.158;2023-03-01T02:57:45;101673.00;;;3.00
13570;BMP180;6856;51.460;7.158;2023-03-01T03:00:29;101690.00;;;3.00
13570;BMP180;6856;51.460;7.158;2023-03-01T03:03:07;101678.00;;;3.00
13570;BMP180;6856;51.460;7.158;2023-03-01T03:05:43;101674.00;;;3.00
13570;BMP180;6856;51.460;7.158;2023-03-01T03:08:17;101674.00;;;3.00
13570;BMP180;6856;51.460;7.158;2023-03-01T03:10:56;101670.00;;;3.00
13570;BMP180;6856;51.460;7.158;2023-03-01T03:13:31;101673.00;;;3.00
13570;BMP180;6856;51.460;7.158;2023-03-01T03:16:06;101675.00;;;3.00
13570;BMP180;6856;51.460;7.158;2023-03-01T03:18:41;101668.00;;;3.00
13570;BMP180;6856;51.460;7.158;2023-03-01T03:21:16;101666.00;;;3.00
13570;BMP180;6856;51.460;7.158;2023-03-01T03:23:50;101672.00;;;3.00
13570;BMP180;6856;51.460;7.158;2023-03-01T03:26:23;101681.00;;;2.90
13570;BMP180;6856;51.460;7.158;2023-03-01T03:28:58;101678.00;;;3.00
13570;BMP180;6856;51.460;7.158;2023-03-01T03:31:33;101663.00;;;2.90
13570;BMP180;6856;51.460;7.158;2023-03-01T03:34:09;101662.00;;;3.00
13570;BMP180;6856;51.460;7.158;2023-03-01T03:36:53;101657.00;;;3.00
13570;BMP180;6856;51.460;7.158;2023-03-01T03:39:32;101668.00;;;3.00
13570;BMP180;6856;51.460;7.158;2023-03-01T03:42:07;101656.00;;;2.90
13570;BMP180;6856;51.460;7.158;2023-03-01T03:44:42;101665.00;;;2.90
13570;BMP180;6856;51.460;7.158;2023-03-01T03:47:16;101659.00;;;2.90
13570;BMP180;6856;51.460;7.158;2023-03-01T03:49:51;101647.00;;;2.90
13570;BMP180;6856;51.460;7.158;2023-03-01T03:52:26;101635.00;;;2.90
13570;BMP180;6856;51.460;7.158;2023-03-01T03:54:59;101641.00;;;2.90
13570;BMP180;6856;51.460;7.158;2023-03-01T03:57:35;101636.00;;;2.90
13570;BMP180;6856;51.460;7.158;2023-03-01T04:00:11;101636.00;;;2.90
13570;BMP180;6856;51.460;7.158;2023-03-01T04:02:47;101635.00;;;2.90
13570;BMP180;6856;51.460;7.158;2023-03-01T04:05:23;101597.00;;;2.90
13570;BMP180;6856;51.460;7.158;2023-03-01T04:07:58;101626.00;;;2.90
13570;BMP180;6856;51.460;7.158;2023-03-01T04:10:38;101628.00;;;2.80
13570;BMP180;6856;51.460;7.158;2023-03-01T04:13:14;101628.00;;;2.80
13570;BMP180;6856;51.460;7.158;2023-03-01T04:15:49;101624.00;;;2.80
13570;BMP180;6856;51.460;7.158;2023-03-01T04:18:24;101630.00;;;2.80
13570;BMP180;6856;51.460;7.158;2023-03-01T04:21:00;101626.00;;;2.70
13570;BMP180;6856;51.460;7.158;2023-03-01T04:23:35;101627.00;;;2.70
13570;BMP180;6856;51.460;7.158;2023-03-01T04:26:09;101632.00;;;2.70
13570;BMP180;6856;51.460;7.158;2023-03-01T04:28:44;101638.00;;;2.70
13570;BMP180;6856;51.460;7.158;2023-03-01T04:31:20;101626.00;;;2.70
13570;BMP180;6856;51.460;7.158;2023-03-01T04:33:55;101636.00;;;2.70
13570;BMP180;6856;51.460;7.158;2023-03-01T04:36:31;101632.00;;;2.60
13570;BMP180;6856;51.460;7.158;2023-03-01T04:39:08;101634.00;;;2.60
13570;BMP180;6856;51.460;7.158;2023-03-01T04:41:44;101622.00;;;2.60
13570;BMP180;6856;51.460;7.158;2023-03-01T04:44:18;101617.00;;;2.60
13570;BMP180;6856;51.460;7.158;2023-03-01T04:46:55;101634.00;;;2.50
13570;BMP180;6856;51.460;7.158;2023-03-01T04:49:28;101627.00;;;2.50
13570;BMP180;6856;51.460;7.158;2023-03-01T04:52:05;101617.00;;;2.50
13570;BMP180;6856;51.460;7.158;2023-03-01T04:54:38;101623.00;;;2.50
13570;BMP180;6856;51.460;7.158;2023-03-01T04:57:12;101612.00;;;2.50
13570;BMP180;6856;51.460;7.158;2023-03-01T04:59:46;101626.00;;;2.50
13570;BMP180;6856;51.460;7.158;2023-03-01T05:02:21;101615.00;;;2.50
13570;BMP180;6856;51.460;7.158;2023-03-01T05:04:55;101626.00;;;2.50
13570;BMP180;6856;51.460;7.158;2023-03-01T05:07:31;101623.00;;;2.50
13570;BMP180;6856;51.460;7.158;2023-03-01T05:10:06;101607.00;;;2.50
13570;BMP180;6856;51.460;7.158;2023-03-01T05:12:40;101602.00;;;2.50
13570;BMP180;6856;51.460;7.158;2023-03-01T05:15:14;101603.00;;;2.50
13570;BMP180;6856;51.460;7.158;2023-03-01T05:17:48;101609.00;;;2.50
13570;BMP180;6856;51.460;7.158;2023-03-01T05:20:22;101619.00;;;2.50
13570;BMP180;6856;51.460;7.158;2023-03-01T05:22:59;101613.00;;;2.40
13570;BMP180;6856;51.460;7.158;2023-03-01T05:25:38;101613.00;;;2.50
13570;BMP180;6856;51.460;7.158;2023-03-01T05:28:14;101599.00;;;2.50
13570;BMP180;6856;51.460;7.158;2023-03-01T05:30:47;101599.00;;;2.40
13570;BMP180;6856;51.460;7.158;2023-03-01T05:33:24;101603.00;;;2.50
13570;BMP180;6856;51.460;7.158;2023-03-01T05:36:00;101602.00;;;2.50
13570;BMP180;6856;51.460;7.158;2023-03-01T05:38:36;101586.00;;;2.40
13570;BMP180;6856;51.460;7.158;2023-03-01T05:41:15;101598.00;;;2.50
13570;BMP180;6856;51.460;7.158;2023-03-01T05:43:52;101616.00;;;2.40
13570;BMP180;6856;51.460;7.158;2023-03-01T05:46:30;101598.00;;;2.40
13570;BMP180;6856;51.460;7.158;2023-03-01T05:49:04;101599.00;;;2.40
13570;BMP180;6856;51.460;7.158;2023-03-01T05:51:38;101597.00;;;2.40
13570;BMP180;6856;51.460;7.158;2023-03-01T05:54:14;101599.00;;;2.40
13570;BMP180;6856;51.460;7.158;2023-03-01T05:56:49;101595.00;;;2.40
13570;BMP180;6856;51.460;7.158;2023-03-01T05:59:22;101591.00;;;2.40
13570;BMP180;6856;51.460;7.158;2023-03-01T06:01:56;101595.00;;;2.40
13570;BMP180;6856;51.460;7.158;2023-03-01T06:04:30;101595.00;;;2.40
13570;BMP180;6856;51.460;7.158;2023-03-01T06:07:04;101586.00;;;2.40
13570;BMP180;6856;51.460;7.158;2023-03-01T06:09:40;101576.00;;;2.40
13570;BMP180;6856;51.460;7.158;2023-03-01T06:12:14;101590.00;;;2.40
13570;BMP180;6856;51.460;7.158;2023-03-01T06:14:48;101599.00;;;2.40
13570;BMP180;6856;51.460;7.158;2023-03-01T06:17:21;101582.00;;;2.40
13570;BMP180;6856;51.460;7.158;2023-03-01T06:19:56;101583.00;;;2.40
13570;BMP180;6856;51.460;7.158;2023-03-01T06:22:30;101590.00;;;2.30
13570;BMP180;6856;51.460;7.158;2023-03-01T06:25:07;101587.00;;;2.30
13570;BMP180;6856;51.460;7.158;2023-03-01T06:27:41;101590.00;;;2.30
13570;BMP180;6856;51.460;7.158;2023-03-01T06:30:20;101583.00;;;2.30
13570;BMP180;6856;51.460;7.158;2023-03-01T06:32:56;101590.00;;;2.20
13570;BMP180;6856;51.460;7.158;2023-03-01T06:35:34;101583.00;;;2.20
13570;BMP180;6856;51.460;7.158;2023-03-01T06:38:08;101584.00;;;2.20
13570;BMP180;6856;51.460;7.158;2023-03-01T06:40:45;101591.00;;;2.20
13570;BMP180;6856;51.460;7.158;2023-03-01T06:43:24;101572.00;;;2.20
13570;BMP180;6856;51.460;7.158;2023-03-01T06:45:58;101580.00;;;2.20
13570;BMP180;6856;51.460;7.158;2023-03-01T06:48:33;101592.00;;;2.00
13570;BMP180;6856;51.460;7.158;2023-03-01T06:51:06;101593.00;;;2.10
13570;BMP180;6856;51.460;7.158;2023-03-01T06:53:40;101585.00;;;2.10
13570;BMP180;6856;51.460;7.158;2023-03-01T06:56:16;101586.00;;;2.10
13570;BMP180;6856;51.460;7.158;2023-03-01T06:58:50;101571.00;;;2.20
13570;BMP180;6856;51.460;7.158;2023-03-01T07:01:24;101589.00;;;2.20
13570;BMP180;6856;51.460;7.158;2023-03-01T07:03:59;101591.00;;;2.10
13570;BMP180;6856;51.460;7.158;2023-03-01T07:06:34;101552.00;;;2.10
13570;BMP180;6856;51.460;7.158;2023-03-01T07:09:10;101575.00;;;2.10
13570;BMP180;6856;51.460;7.158;2023-03-01T07:11:45;101585.00;;;2.10
13570;BMP180;6856;51.460;7.158;2023-03-01T07:14:19;101587.00;;;2.20
13570;BMP180;6856;51.460;7.158;2023-03-01T07:16:55;101561.00;;;2.20
13570;BMP180;6856;51.460;7.158;2023-03-01T07:19:29;101577.00;;;2.20
13570;BMP180;6856;51.460;7.158;2023-03-01T07:22:03;101572.00;;;2.20
13570;BMP180;6856;51.460;7.158;2023-03-01T07:24:41;101575.00;;;2.30
13570;BMP180;6856;51.460;7.158;2023-03-01T07:27:18;101559.00;;;2.30
13570;BMP180;6856;51.460;7.158;2023-03-01T07:29:52;101574.00;;;2.40
13570;BMP180;6856;51.460;7.158;2023-03-01T07:32:26;101575.00;;;2.40
13570;BMP180;6856;51.460;7.158;2023-03-01T07:35:00;101572.00;;;2.50
13570;BMP180;6856;51.460;7.158;2023-03-01T07:37:33;101569.00;;;2.50
13570;BMP180;6856;51.460;7.158;2023-03-01T07:40:09;101575.00;;;2.60
13570;BMP180;6856;51.460;7.158;2023-03-01T07:42:45;101569.00;;;2.60
13570;BMP180;6856;51.460;7.158;2023-03-01T07:45:19;101562.00;;;2.70
13570;BMP180;6856;51.460;7.158;2023-03-01T07:47:53;101554.00;;;2.70
13570;BMP180;6856;51.460;7.158;2023-03-01T07:50:28;101574.00;;;2.80
13570;BMP180;6856;51.460;7.158;2023-03-01T07:53:02;101576.00;;;2.90
13570;BMP180;6856;51.460;7.158;2023-03-01T07:55:37;101566.00;;;2.90
13570;BMP180;6856;51.460;7.158;2023-03-01T07:58:13;101572.00;;;3.00
13570;BMP180;6856;51.460;7.158;2023-03-01T08:00:47;101573.00;;;3.10
13570;BMP180;6856;51.460;7.158;2023-03-01T08:03:21;101572.00;;;3.10
13570;BMP180;6856;51.460;7.158;2023-03-01T08:05:55;101575.00;;;3.20
13570;BMP180;6856;51.460;7.158;2023-03-01T08:08:29;101576.00;;;3.30
13570;BMP180;6856;51.460;7.158;2023-03-01T08:11:06;101578.00;;;3.30
13570;BMP180;6856;51.460;7.158;2023-03-01T08:13:42;101567.00;;;3.40
13570;BMP180;6856;51.460;7.158;2023-03-01T08:16:17;101581.00;;;3.50
13570;BMP180;6856;51.460;7.158;2023-03-01T08:18:51;101580.00;;;3.50
13570;BMP180;6856;51.460;7.158;2023-03-01T08:21:28;101567.00;;;3.60
13570;BMP180;6856;51.460;7.158;2023-03-01T08:24:02;101578.00;;;3.70
13570;BMP180;6856;51.460;7.158;2023-03-01T08:26:39;101574.00;;;3.80
13570;BMP180;6856;51.460;7.158;2023-03-01T08:29:15;101574.00;;;3.80
13570;BMP180;6856;51.460;7.158;2023-03-01T08:31:49;101574.00;;;3.90
13570;BMP180;6856;51.460;7.158;2023-03-01T08:34:23;101571.00;;;4.00
13570;BMP180;6856;51.460;7.158;2023-03-01T08:36:57;101565.00;;;4.10
13570;BMP180;6856;51.460;7.158;2023-03-01T08:39:31;101567.00;;;4.20
13570;BMP180;6856;51.460;7.158;2023-03-01T08:42:05;101562.00;;;4.30
13570;BMP180;6856;51.460;7.158;2023-03-01T08:44:40;101526.00;;;4.40
13570;BMP180;6856;51.460;7.158;2023-03-01T08:47:17;101565.00;;;4.50
13570;BMP180;6856;51.460;7.158;2023-03-01T08:49:50;101564.00;;;4.60
13570;BMP180;6856;51.460;7.158;2023-03-01T08:52:25;101557.00;;;4.70
13570;BMP180;6856;51.460;7.158;2023-03-01T08:55:00;101555.00;;;4.80
13570;BMP180;6856;51.460;7.158;2023-03-01T08:57:35;101558.00;;;4.90
13570;BMP180;6856;51.460;7.158;2023-03-01T09:00:12;101554.00;;;5.00
13570;BMP180;6856;51.460;7.158;2023-03-01T09:02:48;101557.00;;;5.10
13570;BMP180;6856;51.460;7.158;2023-03-01T09:05:22;101562.00;;;5.20
13570;BMP180;6856;51.460;7.158;2023-03-01T09:07:57;101556.00;;;5.20
13570;BMP180;6856;51.460;7.158;2023-03-01T09:10:31;101534.00;;;5.30
13570;BMP180;6856;51.460;7.158;2023-03-01T09:13:05;101545.00;;;5.40
13570;BMP180;6856;51.460;7.158;2023-03-01T09:15:41;101561.00;;;5.50
13570;BMP180;6856;51.460;7.158;2023-03-01T09:18:15;101552.00;;;5.60
13570;BMP180;6856;51.460;7.158;2023-03-01T09:20:49;101553.00;;;5.70
13570;BMP180;6856;51.460;7.158;2023-03-01T09:23:23;101533.00;;;5.80
13570;BMP180;6856;51.460;7.158;2023-03-01T09:25:57;101551.00;;;5.90
13570;BMP180;6856;51.460;7.158;2023-03-01T09:28:31;101553.00;;;6.00
13570;BMP180;6856;51.460;7.158;2023-03-01T09:31:07;101546.00;;;6.10
13570;BMP180;6856;51.460;7.158;2023-03-01T09:33:42;101553.00;;;6.10
13570;BMP180;6856;51.460;7.158;2023-03-01T09:36:19;101543.00;;;6.20
13570;BMP180;6856;51.460;7.158;2023-03-01T09:38:53;101538.00;;;6.30
13570;BMP180;6856;51.460;7.158;2023-03-01T09:41:43;101537.00;;;6.40
13570;BMP180;6856;51.460;7.158;2023-03-01T09:44:37;101542.00;;;6.50
13570;BMP180;6856;51.460;7.158;2023-03-01T09:47:18;101537.00;;;6.50
13570;BMP180;6856;51.460;7.158;2023-03-01T09:50:02;101535.00;;;6.60
13570;BMP180;6856;51.460;7.158;2023-03-01T09:52:42;101543.00;;;6.70
13570;BMP180;6856;51.460;7.158;2023-03-01T09:55:26;101543.00;;;6.80
13570;BMP180;6856;51.460;7.158;2023-03-01T09:58:29;101531.00;;;6.90
13570;BMP180;6856;51.460;7.158;2023-03-01T10:01:28;101535.00;;;7.00
13570;BMP180;6856;51.460;7.158;2023-03-01T10:04:36;101526.00;;;7.10
13570;BMP180;6856;51.460;7.158;2023-03-01T10:07:30;101529.00;;;7.20
13570;BMP180;6856;51.460;7.158;2023-03-01T10:10:08;101517.00;;;7.20
13570;BMP180;6856;51.460;7.158;2023-03-01T10:12:44;101517.00;;;7.30
13570;BMP180;6856;51.460;7.158;2023-03-01T10:15:24;101519.00;;;7.40
13570;BMP180;6856;51.460;7.158;2023-03-01T10:18:04;101513.00;;;7.50
13570;BMP180;6856;51.460;7.158;2023-03-01T10:20:48;101515.00;;;7.60
13570;BMP180;6856;51.460;7.158;2023-03-01T10:23:25;101514.00;;;7.60
13570;BMP180;6856;51.460;7.158;2023-03-01T10:26:35;101506.00;;;7.70
13570;BMP180;6856;51.460;7.158;2023-03-01T10:29:13;101528.00;;;7.70
13570;BMP180;6856;51.460;7.158;2023-03-01T10:31:53;101519.00;;;7.80
13570;BMP180;6856;51.460;7.158;2023-03-01T10:34:30;101514.00;;;7.90
13570;BMP180;6856;51.460;7.158;2023-03-01T10:37:13;101511.00;;;8.00
13570;BMP180;6856;51.460;7.158;2023-03-01T10:40:01;101512.00;;;8.10
13570;BMP180;6856;51.460;7.158;2023-03-01T10:42:48;101510.00;;;8.10
13570;BMP180;6856;51.460;7.158;2023-03-01T10:45:33;101496.00;;;8.20
13570;BMP180;6856;51.460;7.158;2023-03-01T10:48:14;101494.00;;;8.30
13570;BMP180;6856;51.460;7.158;2023-03-01T10:50:50;101500.00;;;8.40
13570;BMP180;6856;51.460;7.158;2023-03-01T10:53:31;101492.00;;;8.50
13570;BMP180;6856;51.460;7.158;2023-03-01T10:56:09;101478.00;;;8.60
13570;BMP180;6856;51.460;7.158;2023-03-01T10:58:59;101470.00;;;8.70
13570;BMP180;6856;51.460;7.158;2023-03-01T11:01:35;101463.00;;;8.80
13570;BMP180;6856;51.460;7.158;2023-03-01T11:04:13;101471.00;;;8.80
13570;BMP180;6856;51.460;7.158;2023-03-01T11:06:59;101475.00;;;8.90
13570;BMP180;6856;51.460;7.158;2023-03-01T11:09:34;101479.00;;;9.00
13570;BMP180;6856;51.460;7.158;2023-03-01T11:12:15;101474.00;;;9.00
13570;BMP180;6856;51.460;7.158;2023-03-01T11:14:53;101457.00;;;9.20
13570;BMP180;6856;51.460;7.158;2023-03-01T11:17:30;101463.00;;;9.30
13570;BMP180;6856;51.460;7.158;2023-03-01T11:20:31;101459.00;;;9.30
13570;BMP180;6856;51.460;7.158;2023-03-01T11:23:11;101453.00;;;9.40
13570;BMP180;6856;51.460;7.158;2023-03-01T11:25:54;101442.00;;;9.40
13570;BMP180;6856;51.460;7.158;2023-03-01T11:28:30;101422.00;;;9.50
13570;BMP180;6856;51.460;7.158;2023-03-01T11:31:06;101452.00;;;9.60
13570;BMP180;6856;51.460;7.158;2023-03-01T11:33:46;101442.00;;;9.60
13570;BMP180;6856;51.460;7.158;2023-03-01T11:36:32;101443.00;;;9.70
13570;BMP180;6856;51.460;7.158;2023-03-01T11:39:24;101449.00;;;9.70
13570;BMP180;6856;51.460;7.158;2023-03-01T11:42:11;101450.00;;;9.80
13570;BMP180;6856;51.460;7.158;2023-03-01T11:44:55;101455.00;;;9.90
13570;BMP180;6856;51.460;7.158;2023-03-01T11:47:53;101454.00;;;9.90
13570;BMP180;6856;51.460;7.158;2023-03-01T11:50:39;101435.00;;;10.00
13570;BMP180;6856;51.460;7.158;2023-03-01T11:53:45;101441.00;;;10.10
13570;BMP180;6856;51.460;7.158;2023-03-01T11:56:31;101444.00;;;10.20
13570;BMP180;6856;51.460;7.158;2023-03-01T11:59:45;101454.00;;;10.30
13570;BMP180;6856;51.460;7.158;2023-03-01T12:03:07;101445.00;;;10.30
13570;BMP180;6856;51.460;7.158;2023-03-01T12:09:24;101443.00;;;10.40
13570;BMP180;6856;51.460;7.158;2023-03-01T12:12:30;101438.00;;;10.50
13570;BMP180;6856;51.460;7.158;2023-03-01T12:15:41;101429.00;;;10.60
13570;BMP180;6856;51.460;7.158;2023-03-01T12:18:42;101432.00;;;10.60
13570;BMP180;6856;51.460;7.158;2023-03-01T12:21:33;101423.00;;;10.70
13570;BMP180;6856;51.460;7.158;2023-03-01T12:28:08;101415.00;;;10.90
13570;BMP180;6856;51.460;7.158;2023-03-01T12:31:22;101402.00;;;10.90
13570;BMP180;6856;51.460;7.158;2023-03-01T12:34:26;101399.00;;;11.00
13570;BMP180;6856;51.460;7.158;2023-03-01T12:37:29;101398.00;;;11.10
13570;BMP180;6856;51.460;7.158;2023-03-01T12:40:31;101399.00;;;11.20
13570;BMP180;6856;51.460;7.158;2023-03-01T12:43:28;101393.00;;;11.20
13570;BMP180;6856;51.460;7.158;2023-03-01T12:46:23;101401.00;;;11.30
13570;BMP180;6856;51.460;7.158;2023-03-01T12:49:08;101392.00;;;11.40
13570;BMP180;6856;51.460;7.158;2023-03-01T12:51:51;101397.00;;;11.40
13570;BMP180;6856;51.460;7.158;2023-03-01T12:54:32;101407.00;;;11.50
13570;BMP180;6856;51.460;7.158;2023-03-01T12:57:18;101398.00;;;11.50
13570;BMP180;6856;51.460;7.158;2023-03-01T13:00:17;101392.00;;;11.50
13570;BMP180;6856;51.460;7.158;2023-03-01T13:03:01;101383.00;;;11.60
13570;BMP180;6856;51.460;7.158;2023-03-01T13:05:51;101386.00;;;11.60
13570;BMP180;6856;51.460;7.158;2023-03-01T13:08:36;101390.00;;;11.60
13570;BMP180;6856;51.460;7.158;2023-03-01T13:11:18;101375.00;;;11.60
13570;BMP180;6856;51.460;7.158;2023-03-01T13:14:45;101382.00;;;11.60
13570;BMP180;6856;51.460;7.158;2023-03-01T13:17:41;101379.00;;;11.60
13570;BMP180;6856;51.460;7.158;2023-03-01T13:20:20;101372.00;;;11.60
13570;BMP180;6856;51.460;7.158;2023-03-01T13:23:08;101376.00;;;11.60
13570;BMP180;6856;51.460;7.158;2023-03-01T13:26:07;101366.00;;;11.60
13570;BMP180;6856;51.460;7.158;2023-03-01T13:28:52;101366.00;;;11.60
13570;BMP180;6856;51.460;7.158;2023-03-01T13:32:02;101365.00;;;11.60
13570;BMP180;6856;51.460;7.158;2023-03-01T13:34:53;101361.00;;;11.70
13570;BMP180;6856;51.460;7.158;2023-03-01T13:37:37;101355.00;;;11.70
13570;BMP180;6856;51.460;7.158;2023-03-01T13:41:02;101352.00;;;11.70
13570;BMP180;6856;51.460;7.158;2023-03-01T13:43:38;101349.00;;;11.70
13570;BMP180;6856;51.460;7.158;2023-03-01T13:46:20;101350.00;;;11.60
13570;BMP180;6856;51.460;7.158;2023-03-01T13:48:57;101343.00;;;11.60
13570;BMP180;6856;51.460;7.158;2023-03-01T13:51:31;101329.00;;;11.60
13570;BMP180;6856;51.460;7.158;2023-03-01T13:54:11;101330.00;;;11.60
13570;BMP180;6856;51.460;7.158;2023-03-01T13:56:46;101330.00;;;11.60
13570;BMP180;6856;51.460;7.158;2023-03-01T13:59:22;101328.00;;;11.60
13570;BMP180;6856;51.460;7.158;2023-03-01T14:02:00;101333.00;;;11.60
13570;BMP180;6856;51.460;7.158;2023-03-01T14:04:35;101321.00;;;11.60
13570;BMP180;6856;51.460;7.158;2023-03-01T14:07:13;101304.00;;;11.60
13570;BMP180;6856;51.460;7.158;2023-03-01T14:09:55;101320.00;;;11.60
13570;BMP180;6856;51.460;7.158;2023-03-01T14:12:45;101312.00;;;11.60
13570;BMP180;6856;51.460;7.158;2023-03-01T14:15:25;101304.00;;;11.50
13570;BMP180;6856;51.460;7.158;2023-03-01T14:18:07;101300.00;;;11.50
13570;BMP180;6856;51.460;7.158;2023-03-01T14:20:46;101305.00;;;11.50
13570;BMP180;6856;51.460;7.158;2023-03-01T14:23:24;101307.00;;;11.50
13570;BMP180;6856;51.460;7.158;2023-03-01T14:25:59;101296.00;;;11.50
13570;BMP180;6856;51.460;7.158;2023-03-01T14:28:36;101292.00;;;11.50
13570;BMP180;6856;51.460;7.158;2023-03-01T14:31:35;101240.00;;;11.40
13570;BMP180;6856;51.460;7.158;2023-03-01T14:34:25;101273.00;;;11.40
13570;BMP180;6856;51.460;7.158;2023-03-01T14:37:18;101282.00;;;11.40
13570;BMP180;6856;51.460;7.158;2023-03-01T14:39:54;101289.00;;;11.40
13570;BMP180;6856;51.460;7.158;2023-03-01T14:42:33;101270.00;;;11.30
13570;BMP180;6856;51.460;7.158;2023-03-01T14:45:13;101277.00;;;11.30
13570;BMP180;6856;51.460;7.158;2023-03-01T14:47:48;101268.00;;;11.30
13570;BMP180;6856;51.460;7.158;2023-03-01T14:50:27;101271.00;;;11.30
13570;BMP180;6856;51.460;7.158;2023-03-01T14:53:05;101259.00;;;11.20
13570;BMP180;6856;51.460;7.158;2023-03-01T14:55:45;101256.00;;;11.20
13570;BMP180;6856;51.460;7.158;2023-03-01T14:58:24;101255.00;;;11.20
13570;BMP180;6856;51.460;7.158;2023-03-01T15:01:02;101255.00;;;11.20
13570;BMP180;6856;51.460;7.158;2023-03-01T15:03:41;101247.00;;;11.20
13570;BMP180;6856;51.460;7.158;2023-03-01T15:06:19;101233.00;;;11.10
13570;BMP180;6856;51.460;7.158;2023-03-01T15:08:56;101242.00;;;11.10
13570;BMP180;6856;51.460;7.158;2023-03-01T15:11:33;101247.00;;;11.10
13570;BMP180;6856;51.460;7.158;2023-03-01T15:14:28;101243.00;;;11.10
13570;BMP180;6856;51.460;7.158;2023-03-01T15:17:27;101242.00;;;11.00
13570;BMP180;6856;51.460;7.158;2023-03-01T15:20:07;101237.00;;;11.00
13570;BMP180;6856;51.460;7.158;2023-03-01T15:22:49;101233.00;;;11.00
13570;BMP180;6856;51.460;7.158;2023-03-01T15:25:27;101205.00;;;11.00
13570;BMP180;6856;51.460;7.158;2023-03-01T15:28:02;101230.00;;;10.90
13570;BMP180;6856;51.460;7.158;2023-03-01T15:30:37;101225.00;;;10.90
13570;BMP180;6856;51.460;7.158;2023-03-01T15:33:20;101229.00;;;10.90
13570;BMP180;6856;51.460;7.158;2023-03-01T15:36:03;101231.00;;;10.90
13570;BMP180;6856;51.460;7.158;2023-03-01T15:38:52;101220.00;;;10.80